createdAt,value
2018-07-04T00:01:33.614Z,8.13
2018-07-04T00:04:20.351Z,9.10
2018-07-04T00:10:07.311Z,9.03
2018-07-04T00:12:54.091Z,11.77
2018-07-04T00:15:41.027Z,7.00
2018-07-04T00:18:27.802Z,7.27
2018-07-04T00:21:14.504Z,8.07
2018-07-04T00:24:01.172Z,8.23
2018-07-04T00:26:54.700Z,9.90
2018-07-04T00:29:41.415Z,7.83
2018-07-04T00:32:28.363Z,8.40
2018-07-04T00:35:15.109Z,11.00
2018-07-04T00:38:01.800Z,8.70
2018-07-04T00:40:48.584Z,8.93
2018-07-04T00:43:35.402Z,8.73
2018-07-04T00:46:22.213Z,7.20
2018-07-04T00:49:08.860Z,7.53
2018-07-04T00:51:55.668Z,8.03
2018-07-04T00:54:42.443Z,7.97
2018-07-04T00:57:29.305Z,9.33
2018-07-04T01:00:16.395Z,8.47
2018-07-04T01:03:03.184Z,10.20
2018-07-04T01:05:49.819Z,9.00
2018-07-04T01:08:36.420Z,8.27
2018-07-04T01:11:23.071Z,8.57
2018-07-04T01:14:10.821Z,8.53
2018-07-04T01:16:57.645Z,11.50
2018-07-04T01:19:44.446Z,9.67
2018-07-04T01:22:31.295Z,10.00
2018-07-04T01:25:18.071Z,9.30
2018-07-04T01:28:04.835Z,9.53
2018-07-04T01:30:51.623Z,10.27
2018-07-04T01:33:38.387Z,10.53
2018-07-04T01:36:25.080Z,11.87
2018-07-04T01:39:11.815Z,9.40
2018-07-04T01:41:58.533Z,10.50
2018-07-04T01:44:45.371Z,8.83
2018-07-04T01:47:32.000Z,14.13
2018-07-04T01:50:18.807Z,9.63
2018-07-04T01:53:05.539Z,12.40
2018-07-04T01:55:53.799Z,13.33
2018-07-04T01:58:40.708Z,10.77
2018-07-04T02:01:27.250Z,10.97
2018-07-04T02:04:13.956Z,9.87
2018-07-04T02:07:01.213Z,12.67
2018-07-04T02:09:48.043Z,11.13
2018-07-04T02:12:36.095Z,10.30
2018-07-04T02:15:23.073Z,9.83
2018-07-04T02:18:14.456Z,9.40
2018-07-04T02:21:01.227Z,8.60
2018-07-04T02:23:47.981Z,9.20
2018-07-04T02:26:34.771Z,10.03
2018-07-04T02:29:21.655Z,12.87
2018-07-04T02:32:08.603Z,10.77
2018-07-04T02:35:00.307Z,9.87
2018-07-04T02:37:47.128Z,10.80
2018-07-04T02:40:33.839Z,11.40
2018-07-04T02:43:20.581Z,12.77
2018-07-04T02:46:09.462Z,11.87
2018-07-04T02:48:56.369Z,11.23
2018-07-04T02:51:43.311Z,10.00
2018-07-04T02:54:29.992Z,13.27
2018-07-04T02:57:16.664Z,12.43
2018-07-04T03:00:03.310Z,11.60
2018-07-04T03:02:44.154Z,9.27
2018-07-04T03:05:30.883Z,11.20
2018-07-04T03:08:17.903Z,12.00
2018-07-04T03:11:04.200Z,9.97
2018-07-04T03:13:51.169Z,11.43
2018-07-04T03:16:37.569Z,9.93
2018-07-04T03:19:24.234Z,11.90
2018-07-04T03:22:04.781Z,13.23
2018-07-04T03:24:51.406Z,11.83
2018-07-04T03:27:38.005Z,12.83
2018-07-04T03:30:31.720Z,14.83
2018-07-04T03:33:18.530Z,11.57
2018-07-04T03:36:05.162Z,13.40
2018-07-04T03:38:51.753Z,10.40
2018-07-04T03:41:38.509Z,12.63
2018-07-04T03:44:25.094Z,12.00
2018-07-04T03:47:11.746Z,10.90
2018-07-04T03:49:58.539Z,12.20
2018-07-04T03:52:52.050Z,11.67
2018-07-04T03:55:38.540Z,13.67
2018-07-04T03:58:25.088Z,12.60
2018-07-04T04:01:11.781Z,12.00
2018-07-04T04:03:58.426Z,10.00
2018-07-04T04:06:45.241Z,12.07
2018-07-04T04:09:31.681Z,10.80
2018-07-04T04:12:19.292Z,10.63
2018-07-04T04:15:05.917Z,11.90
2018-07-04T04:17:52.516Z,12.80
2018-07-04T04:20:39.146Z,12.13
2018-07-04T04:23:25.652Z,13.27
2018-07-04T04:26:12.626Z,13.13
2018-07-04T04:28:59.218Z,17.17
2018-07-04T04:31:45.958Z,11.90
2018-07-04T04:34:32.562Z,15.37
2018-07-04T04:37:19.297Z,11.80
2018-07-04T04:40:06.101Z,15.07
2018-07-04T04:42:52.421Z,10.67
2018-07-04T04:45:38.824Z,12.97
2018-07-04T04:48:28.249Z,10.73
2018-07-04T04:51:14.837Z,10.57
2018-07-04T04:54:01.491Z,12.20
2018-07-04T04:56:48.081Z,10.00
2018-07-04T04:59:34.882Z,11.93
2018-07-04T05:02:21.409Z,12.10
2018-07-04T05:05:08.063Z,11.77
2018-07-04T05:07:54.657Z,12.20
2018-07-04T05:10:41.302Z,13.43
2018-07-04T05:13:27.895Z,12.47
2018-07-04T05:16:14.533Z,9.67
2018-07-04T05:19:01.346Z,13.57
2018-07-04T05:21:48.199Z,13.63
2018-07-04T05:24:34.981Z,12.97
2018-07-04T05:27:21.621Z,20.87
2018-07-04T05:30:08.425Z,11.30
2018-07-04T05:32:55.177Z,12.27
2018-07-04T05:35:47.312Z,12.87
2018-07-04T05:38:33.867Z,12.93
2018-07-04T05:41:20.181Z,13.47
2018-07-04T05:44:06.886Z,11.97
2018-07-04T05:46:53.478Z,13.77
2018-07-04T05:49:40.129Z,15.60
2018-07-04T05:52:26.716Z,12.43
2018-07-04T05:55:13.270Z,14.83
2018-07-04T05:57:59.765Z,14.67
2018-07-04T06:00:46.447Z,16.07
2018-07-04T06:03:33.106Z,14.37
2018-07-04T06:06:19.922Z,13.53
2018-07-04T06:09:06.596Z,14.33
2018-07-04T06:11:53.290Z,15.33
2018-07-04T06:14:40.044Z,14.47
2018-07-04T06:17:26.757Z,12.37
2018-07-04T06:20:13.325Z,12.33
2018-07-04T06:23:00.054Z,11.67
2018-07-04T06:25:46.514Z,12.63
2018-07-04T06:28:33.223Z,11.00
2018-07-04T06:31:13.872Z,8.67
2018-07-04T06:34:00.933Z,10.17
2018-07-04T06:36:47.518Z,8.93
2018-07-04T06:39:15.450Z,11.17
2018-07-04T06:44:43.759Z,10.93
2018-07-04T06:47:12.070Z,10.03
2018-07-04T06:49:40.200Z,9.43
2018-07-04T06:52:08.194Z,10.63
2018-07-04T06:54:36.194Z,10.72
2018-07-04T06:57:22.312Z,10.58
2018-07-04T06:59:50.387Z,8.95
2018-07-04T07:02:19.454Z,10.25
2018-07-04T07:05:06.422Z,11.22
2018-07-04T07:07:53.183Z,12.35
2018-07-04T07:10:39.815Z,10.18
2018-07-04T07:13:26.446Z,9.98
2018-07-04T07:16:13.248Z,12.07
2018-07-04T07:18:59.851Z,8.20
2018-07-04T07:21:46.421Z,8.78
2018-07-04T07:24:32.930Z,10.85
2018-07-04T07:27:19.441Z,9.23
2018-07-04T07:30:05.963Z,7.12
2018-07-04T07:32:52.918Z,7.87
2018-07-04T07:35:39.512Z,8.68
2018-07-04T07:38:26.414Z,7.53
2018-07-04T07:41:13.388Z,8.38
2018-07-04T07:44:00.374Z,8.88
2018-07-04T07:46:48.021Z,10.13
2018-07-04T07:49:34.938Z,10.45
2018-07-04T07:52:21.529Z,8.35
2018-07-04T07:55:08.423Z,8.43
2018-07-04T07:57:55.513Z,7.53
2018-07-04T08:00:42.096Z,8.83
2018-07-04T08:03:28.678Z,9.78
2018-07-04T08:06:15.495Z,9.33
2018-07-04T08:09:02.594Z,9.18
2018-07-04T08:11:49.522Z,9.08
2018-07-04T08:14:40.078Z,7.60
2018-07-04T08:17:26.639Z,10.00
2018-07-04T08:20:13.541Z,8.15
2018-07-04T08:23:00.633Z,9.05
2018-07-04T08:25:47.499Z,7.22
2018-07-04T08:28:34.597Z,8.33
2018-07-04T08:31:21.616Z,7.62
2018-07-04T08:34:08.645Z,8.65
2018-07-04T08:36:55.285Z,8.13
2018-07-04T08:39:41.829Z,7.50
2018-07-04T08:42:28.645Z,8.35
2018-07-04T08:45:15.657Z,8.58
2018-07-04T08:48:02.771Z,7.80
2018-07-04T08:50:50.120Z,8.60
2018-07-04T08:53:40.227Z,9.23
2018-07-04T08:56:26.850Z,10.15
2018-07-04T08:59:13.831Z,7.55
2018-07-04T09:02:00.439Z,10.32
2018-07-04T09:04:47.447Z,11.93
2018-07-04T09:07:28.809Z,7.78
2018-07-04T09:10:15.841Z,9.93
2018-07-04T09:13:02.874Z,8.38
2018-07-04T09:15:49.764Z,9.53
2018-07-04T09:18:36.486Z,10.80
2018-07-04T09:21:23.472Z,7.60
2018-07-04T09:24:10.131Z,8.30
2018-07-04T09:26:56.916Z,10.82
2018-07-04T09:29:43.892Z,7.95
2018-07-04T09:32:30.932Z,7.28
2018-07-04T09:35:18.070Z,7.65
2018-07-04T09:38:04.907Z,7.00
2018-07-04T09:40:51.949Z,7.78
2018-07-04T09:43:38.938Z,7.92
2018-07-04T09:46:25.581Z,8.03
2018-07-04T09:49:12.067Z,7.90
2018-07-04T09:51:58.949Z,9.85
2018-07-04T09:54:45.956Z,9.33
2018-07-04T09:57:32.585Z,9.95
2018-07-04T10:00:23.066Z,8.60
2018-07-04T10:03:10.781Z,8.85
2018-07-04T10:05:57.481Z,10.72
2018-07-04T10:08:44.138Z,8.90
2018-07-04T10:11:30.619Z,8.58
2018-07-04T10:14:17.534Z,8.90
2018-07-04T10:17:04.167Z,9.27
2018-07-04T10:19:50.809Z,9.67
2018-07-04T10:22:37.304Z,15.77
2018-07-04T10:25:24.018Z,9.63
2018-07-04T10:28:10.742Z,6.93
2018-07-04T10:30:57.298Z,6.77
2018-07-04T10:33:43.878Z,8.53
2018-07-04T10:36:30.534Z,5.87
2018-07-04T10:39:17.370Z,6.20
2018-07-04T10:41:57.853Z,6.20
2018-07-04T10:44:44.565Z,6.80
2018-07-04T10:47:31.395Z,9.40
2018-07-04T10:50:18.086Z,7.03
2018-07-04T10:53:04.722Z,6.70
2018-07-04T10:55:51.302Z,6.13
2018-07-04T10:58:38.108Z,6.20
2018-07-04T11:01:24.811Z,6.37
2018-07-04T11:04:11.360Z,7.10
2018-07-04T11:06:58.112Z,7.13
2018-07-04T11:09:44.798Z,5.80
2018-07-04T11:12:31.458Z,6.47
2018-07-04T11:15:18.219Z,5.23
2018-07-04T11:18:04.886Z,7.50
2018-07-04T11:20:51.983Z,10.60
2018-07-04T11:23:38.602Z,8.50
2018-07-04T11:26:25.446Z,7.47
2018-07-04T11:29:12.082Z,8.67
2018-07-04T11:31:58.733Z,9.47
2018-07-04T11:34:45.377Z,7.80
2018-07-04T11:37:31.884Z,6.77
2018-07-04T11:40:18.470Z,5.47
2018-07-04T11:43:05.131Z,6.87
2018-07-04T11:45:51.656Z,8.97
2018-07-04T11:48:19.938Z,7.43
2018-07-04T11:50:47.970Z,6.33
2018-07-04T11:53:16.157Z,5.17
2018-07-04T11:55:44.169Z,5.43
2018-07-04T11:58:12.027Z,7.60
2018-07-04T12:00:39.982Z,7.23
2018-07-04T12:03:23.128Z,6.93
2018-07-04T12:06:09.758Z,5.67
2018-07-04T12:08:37.712Z,6.20
2018-07-04T12:11:05.622Z,6.40
2018-07-04T12:13:33.502Z,5.58
2018-07-04T12:16:01.499Z,5.60
2018-07-04T12:18:29.468Z,7.47
2018-07-04T12:20:57.472Z,5.83
2018-07-04T12:23:25.613Z,7.25
2018-07-04T12:25:53.493Z,5.55
2018-07-04T12:28:21.387Z,6.40
2018-07-04T12:30:49.308Z,6.22
2018-07-04T12:33:17.249Z,6.97
2018-07-04T12:35:45.231Z,5.92
2018-07-04T12:38:13.154Z,5.87
2018-07-04T12:40:41.090Z,6.92
2018-07-04T12:43:08.974Z,10.10
2018-07-04T12:45:39.547Z,7.90
2018-07-04T12:48:04.884Z,7.00
2018-07-04T12:50:33.594Z,4.92
2018-07-04T12:53:01.658Z,7.00
2018-07-04T12:55:48.446Z,7.97
2018-07-04T12:58:34.978Z,7.45
2018-07-04T13:01:21.500Z,5.42
2018-07-04T13:04:08.375Z,6.22
2018-07-04T13:06:55.142Z,6.40
2018-07-04T13:09:41.759Z,8.55
2018-07-04T13:12:28.495Z,5.33
2018-07-04T13:15:15.176Z,5.15
2018-07-04T13:18:01.813Z,4.87
2018-07-04T13:20:48.493Z,5.10
2018-07-04T13:23:34.865Z,6.25
2018-07-04T13:26:21.496Z,5.55
2018-07-04T13:29:09.656Z,6.35
2018-07-04T13:31:50.343Z,5.83
2018-07-04T13:34:36.720Z,6.47
2018-07-04T13:37:23.465Z,6.05
2018-07-04T13:40:10.003Z,5.17
2018-07-04T13:42:56.711Z,6.50
2018-07-04T13:45:37.466Z,7.17
2018-07-04T13:48:24.220Z,5.20
2018-07-04T13:51:10.909Z,7.47
2018-07-04T13:53:57.653Z,6.55
2018-07-04T13:56:38.114Z,10.23
2018-07-04T13:59:24.662Z,6.75
2018-07-04T14:02:11.342Z,6.62
2018-07-04T14:04:57.947Z,6.03
2018-07-04T14:07:44.506Z,7.30
2018-07-04T14:10:31.396Z,8.50
2018-07-04T14:13:21.586Z,13.28
2018-07-04T14:16:08.316Z,7.05
2018-07-04T14:21:56.066Z,6.58
2018-07-04T14:24:42.643Z,6.67
2018-07-04T14:27:29.310Z,7.95
2018-07-04T14:30:16.023Z,5.80
2018-07-04T14:33:02.630Z,6.03
2018-07-04T14:35:51.470Z,7.65
2018-07-04T14:38:38.173Z,6.42
2018-07-04T14:41:24.712Z,5.12
2018-07-04T14:44:11.361Z,6.47
2018-07-04T14:46:57.984Z,4.80
2018-07-04T14:49:44.450Z,4.75
2018-07-04T14:52:31.137Z,4.53
2018-07-04T14:55:11.813Z,3.67
2018-07-04T14:57:58.597Z,3.40
2018-07-04T15:00:45.237Z,3.15
2018-07-04T15:03:31.922Z,4.60
2018-07-04T15:06:18.544Z,2.85
2018-07-04T15:09:05.277Z,3.83
2018-07-04T15:11:52.189Z,3.92
2018-07-04T15:14:38.829Z,4.00
2018-07-04T15:17:25.491Z,5.17
2018-07-04T15:20:11.859Z,4.53
2018-07-04T15:26:03.224Z,6.03
2018-07-04T15:28:49.882Z,3.85
2018-07-04T15:31:36.788Z,6.33
2018-07-04T15:34:23.621Z,5.40
2018-07-04T15:37:10.274Z,6.58
2018-07-04T15:39:57.084Z,4.05
2018-07-04T15:42:43.497Z,6.37
2018-07-04T15:45:30.284Z,5.70
2018-07-04T15:48:16.899Z,5.12
2018-07-04T15:51:03.654Z,5.30
2018-07-04T15:53:50.202Z,4.83
2018-07-04T15:56:31.129Z,4.60
2018-07-04T15:59:17.700Z,4.70
2018-07-04T16:02:04.442Z,7.95
2018-07-04T16:04:51.190Z,4.22
2018-07-04T16:07:37.742Z,4.12
2018-07-04T16:10:24.386Z,4.60
2018-07-04T16:13:10.797Z,2.95
2018-07-04T16:15:57.577Z,5.05
2018-07-04T16:18:44.335Z,11.90
2018-07-04T16:21:30.957Z,5.30
2018-07-04T16:24:17.546Z,4.87
2018-07-04T16:27:04.178Z,4.83
2018-07-04T16:29:50.805Z,4.62
2018-07-04T16:32:37.621Z,4.17
2018-07-04T16:35:24.046Z,4.58
2018-07-04T16:38:10.569Z,4.97
2018-07-04T16:40:57.309Z,4.42
2018-07-04T16:43:43.671Z,5.62
2018-07-04T16:46:42.144Z,6.00
2018-07-04T16:49:30.528Z,5.10
2018-07-04T16:52:17.182Z,4.65
2018-07-04T16:55:04.868Z,4.37
2018-07-04T16:57:51.661Z,5.05
2018-07-04T17:00:38.708Z,6.83
2018-07-04T17:03:25.294Z,7.67
2018-07-04T17:06:12.412Z,5.43
2018-07-04T17:08:59.085Z,4.80
2018-07-04T17:11:45.739Z,6.30
2018-07-04T17:14:32.562Z,6.37
2018-07-04T17:17:19.307Z,6.57
2018-07-04T17:20:06.049Z,6.35
2018-07-04T17:22:52.739Z,6.12
2018-07-04T17:25:39.252Z,6.42
2018-07-04T17:28:26.483Z,5.62
2018-07-04T17:31:13.091Z,4.47
2018-07-04T17:33:59.734Z,5.08
2018-07-04T17:36:46.383Z,7.62
2018-07-04T17:39:33.996Z,4.62
2018-07-04T17:42:20.858Z,4.85
2018-07-04T17:45:07.491Z,3.92
2018-07-04T17:47:54.173Z,4.95
2018-07-04T17:50:40.781Z,4.97
2018-07-04T17:53:27.487Z,4.78
2018-07-04T17:56:14.142Z,4.80
2018-07-04T17:59:00.964Z,6.33
2018-07-04T18:01:47.716Z,5.28
2018-07-04T18:04:34.426Z,3.92
2018-07-04T18:07:20.917Z,4.50
2018-07-04T18:10:07.572Z,5.42
2018-07-04T18:12:54.250Z,5.85
2018-07-04T18:15:40.911Z,4.50
2018-07-04T18:18:27.725Z,4.67
2018-07-04T18:21:19.610Z,3.83
2018-07-04T18:24:07.794Z,4.83
2018-07-04T18:26:54.572Z,6.58
2018-07-04T18:29:41.152Z,4.65
2018-07-04T18:32:27.797Z,4.72
2018-07-04T18:35:14.436Z,6.47
2018-07-04T18:38:01.392Z,5.73
2018-07-04T18:40:48.353Z,5.03
2018-07-04T18:43:37.458Z,5.73
2018-07-04T18:46:17.962Z,4.77
2018-07-04T18:49:04.796Z,5.03
2018-07-04T18:51:51.863Z,6.70
2018-07-04T18:54:38.776Z,5.83
2018-07-04T18:57:26.805Z,6.60
2018-07-04T19:00:13.915Z,6.13
2018-07-04T19:03:05.889Z,5.67
2018-07-04T19:05:52.762Z,7.23
2018-07-04T19:08:39.643Z,9.67
2018-07-04T19:11:26.688Z,7.27
2018-07-04T19:14:13.403Z,5.93
2018-07-04T19:17:00.303Z,6.67
2018-07-04T19:19:47.343Z,8.03
2018-07-04T19:22:34.212Z,6.30
2018-07-04T19:25:20.895Z,7.60
2018-07-04T19:28:07.945Z,6.30
2018-07-04T19:30:54.872Z,8.43
2018-07-04T19:33:41.615Z,5.47
2018-07-04T19:36:28.586Z,5.53
2018-07-04T19:39:19.659Z,8.50
2018-07-04T19:42:07.537Z,8.50
2018-07-04T19:44:54.736Z,8.67
2018-07-04T19:47:42.161Z,9.83
2018-07-04T19:50:29.255Z,8.10
2018-07-04T19:56:17.328Z,9.57
2018-07-04T19:59:04.840Z,9.33
2018-07-04T20:01:51.711Z,9.87
2018-07-04T20:04:38.484Z,8.43
2018-07-04T20:07:29.248Z,7.97
2018-07-04T20:10:16.099Z,8.83
2018-07-04T20:13:02.689Z,9.80
2018-07-04T20:15:53.162Z,9.07
2018-07-04T20:18:40.078Z,9.87
2018-07-04T20:21:28.165Z,10.00
2018-07-04T20:24:15.199Z,9.53
2018-07-04T20:27:02.018Z,7.73
2018-07-04T20:29:54.269Z,6.67
2018-07-04T20:32:42.499Z,6.30
2018-07-04T20:35:29.557Z,7.70
2018-07-04T20:38:17.443Z,10.67
2018-07-04T20:41:04.320Z,5.93
2018-07-04T20:43:51.336Z,8.30
2018-07-04T20:46:39.835Z,8.70
2018-07-04T20:49:26.939Z,9.63
2018-07-04T20:52:14.056Z,8.40
2018-07-04T20:55:01.057Z,6.70
2018-07-04T20:57:48.139Z,7.17
2018-07-04T21:00:37.130Z,5.93
2018-07-04T21:03:23.650Z,7.07
2018-07-04T21:06:12.768Z,6.70
2018-07-04T21:09:04.652Z,7.20
2018-07-04T21:11:51.746Z,5.80
2018-07-04T21:14:38.529Z,7.23
2018-07-04T21:17:29.062Z,7.63
2018-07-04T21:20:17.546Z,7.70
2018-07-04T21:23:04.632Z,6.77
2018-07-04T21:25:57.924Z,5.87
2018-07-04T21:28:45.133Z,6.07
2018-07-04T21:31:36.755Z,5.93
2018-07-04T21:34:23.747Z,7.70
2018-07-04T21:37:14.756Z,8.03
2018-07-04T21:40:02.741Z,6.63
2018-07-04T21:42:49.811Z,6.23
2018-07-04T21:45:37.555Z,6.93
2018-07-04T21:48:24.820Z,9.37
2018-07-04T21:51:11.864Z,6.30
2018-07-04T21:53:59.163Z,7.20
2018-07-04T21:56:46.716Z,6.07
2018-07-04T21:59:33.694Z,7.37
2018-07-04T22:02:25.712Z,6.97
2018-07-04T22:05:13.239Z,6.67
2018-07-04T22:08:00.052Z,8.73
2018-07-04T22:10:47.390Z,7.13
2018-07-04T22:13:34.328Z,6.57
2018-07-04T22:16:22.829Z,6.37
2018-07-04T22:19:09.876Z,7.80
2018-07-04T22:21:57.486Z,6.10
2018-07-04T22:24:44.856Z,7.43
2018-07-04T22:27:31.913Z,8.50
2018-07-04T22:30:18.958Z,6.03
2018-07-04T22:33:05.947Z,9.23
2018-07-04T22:35:53.474Z,8.10
2018-07-04T22:38:40.144Z,7.47
2018-07-04T22:41:27.417Z,8.03
2018-07-04T22:44:15.052Z,6.83
2018-07-04T22:47:01.954Z,8.30
2018-07-04T22:49:49.169Z,9.93
2018-07-04T22:52:36.112Z,10.67
2018-07-04T22:55:22.768Z,6.90
2018-07-04T22:58:09.423Z,6.77
2018-07-04T23:01:01.652Z,6.30
2018-07-04T23:03:48.325Z,6.27
2018-07-04T23:06:34.988Z,6.70
2018-07-04T23:09:21.799Z,10.37
2018-07-04T23:12:08.528Z,9.47
2018-07-04T23:17:58.903Z,8.60
2018-07-04T23:20:45.651Z,7.97
2018-07-04T23:23:32.759Z,7.27
2018-07-04T23:26:19.388Z,7.50
2018-07-04T23:29:06.117Z,7.17
2018-07-04T23:31:52.847Z,9.00
2018-07-04T23:34:45.256Z,8.37
2018-07-04T23:37:32.351Z,8.73
2018-07-04T23:40:19.107Z,6.90
2018-07-04T23:43:05.864Z,8.33
2018-07-04T23:45:52.656Z,10.03
2018-07-04T23:48:39.344Z,8.97
2018-07-04T23:51:26.756Z,8.20
2018-07-04T23:54:13.551Z,8.60
2018-07-04T23:57:00.200Z,8.83
2018-07-04T23:59:46.887Z,8.43
